createdAt,value
2023-01-29T00:00:09.636Z,100818.80
2023-01-29T00:02:41.420Z,100821.13
2023-01-29T00:05:26.139Z,100820.59
2023-01-29T00:07:52.825Z,100822.30
2023-01-29T00:10:18.857Z,100818.89
2023-01-29T00:12:44.845Z,100818.15
2023-01-29T00:15:11.117Z,100818.19
2023-01-29T00:17:37.094Z,100819.14
2023-01-29T00:20:03.263Z,100818.13
2023-01-29T00:22:30.217Z,100816.24
2023-01-29T00:24:56.113Z,100812.57
2023-01-29T00:27:22.007Z,100815.42
2023-01-29T00:30:07.970Z,100814.38
2023-01-29T00:32:35.095Z,100815.26
2023-01-29T00:35:01.438Z,100814.21
2023-01-29T00:37:27.341Z,100814.64
2023-01-29T00:39:53.262Z,100811.85
2023-01-29T00:42:37.817Z,100816.66
2023-01-29T00:45:04.264Z,100814.67
2023-01-29T00:47:30.273Z,100814.03
2023-01-29T00:49:56.668Z,100816.20
2023-01-29T00:52:23.495Z,100820.09
2023-01-29T00:54:50.269Z,100821.35
2023-01-29T00:57:16.249Z,100825.42
2023-01-29T00:59:42.207Z,100825.46
2023-01-29T01:02:26.862Z,100824.83
2023-01-29T01:04:52.976Z,100831.57
2023-01-29T01:07:19.320Z,100833.73
2023-01-29T01:10:03.966Z,100832.53
2023-01-29T01:12:31.173Z,100832.73
2023-01-29T01:14:57.355Z,100834.55
2023-01-29T01:17:23.477Z,100834.99
2023-01-29T01:19:49.493Z,100836.83
2023-01-29T01:22:16.274Z,100835.48
2023-01-29T01:24:43.379Z,100833.94
2023-01-29T01:27:09.513Z,100834.02
2023-01-29T01:29:36.204Z,100833.77
2023-01-29T01:32:02.248Z,100837.56
2023-01-29T01:34:28.303Z,100836.22
2023-01-29T01:36:58.164Z,100837.29
2023-01-29T01:39:24.618Z,100840.48
2023-01-29T01:41:55.233Z,100839.25
2023-01-29T01:45:07.345Z,100837.99
2023-01-29T01:47:42.533Z,100837.54
2023-01-29T01:50:11.947Z,100835.19
2023-01-29T01:52:44.401Z,100834.42
2023-01-29T01:55:13.809Z,100833.76
2023-01-29T01:57:42.823Z,100833.25
2023-01-29T02:00:13.470Z,100832.77
2023-01-29T02:03:01.326Z,100830.94
2023-01-29T02:05:48.171Z,100828.90
2023-01-29T02:08:45.427Z,100828.60
2023-01-29T02:11:11.357Z,100829.90
2023-01-29T02:13:37.853Z,100833.13
2023-01-29T02:16:04.135Z,100834.60
2023-01-29T02:18:37.321Z,100838.34
2023-01-29T02:21:35.458Z,100844.50
2023-01-29T02:24:30.402Z,100841.41
2023-01-29T02:27:11.705Z,100840.07
2023-01-29T02:29:55.910Z,100842.83
2023-01-29T02:32:33.693Z,100844.49
2023-01-29T02:35:24.680Z,100847.75
2023-01-29T02:38:23.306Z,100849.96
2023-01-29T02:40:58.136Z,100851.27
2023-01-29T02:43:30.316Z,100848.57
2023-01-29T02:46:11.600Z,100846.39
2023-01-29T02:49:05.108Z,100846.52
2023-01-29T02:51:41.456Z,100846.54
2023-01-29T02:54:33.380Z,100844.49
2023-01-29T02:57:07.647Z,100840.35
2023-01-29T02:59:40.288Z,100840.80
2023-01-29T03:02:12.007Z,100842.30
2023-01-29T03:04:45.849Z,100841.35
2023-01-29T03:07:40.667Z,100841.61
2023-01-29T03:10:31.254Z,100838.95
2023-01-29T03:13:02.995Z,100837.98
2023-01-29T03:15:38.469Z,100839.80
2023-01-29T03:18:21.997Z,100841.97
2023-01-29T03:20:57.821Z,100845.53
2023-01-29T03:23:47.995Z,100848.59
2023-01-29T03:26:35.262Z,100853.42
2023-01-29T03:29:22.557Z,100853.19
2023-01-29T03:32:08.438Z,100857.49
2023-01-29T03:34:43.051Z,100860.40
2023-01-29T03:37:34.345Z,100863.48
2023-01-29T03:40:04.623Z,100863.07
2023-01-29T03:42:33.797Z,100861.64
2023-01-29T03:45:13.892Z,100869.52
2023-01-29T03:48:01.693Z,100877.08
2023-01-29T03:50:31.984Z,100877.93
2023-01-29T03:53:24.562Z,100875.23
2023-01-29T03:56:12.478Z,100877.98
2023-01-29T03:58:45.836Z,100874.00
2023-01-29T04:01:23.715Z,100879.41
2023-01-29T04:03:58.234Z,100879.52
2023-01-29T04:06:29.478Z,100877.46
2023-01-29T04:09:10.857Z,100875.81
2023-01-29T04:11:42.681Z,100873.02
2023-01-29T04:14:08.963Z,100872.77
2023-01-29T04:16:39.359Z,100871.12
2023-01-29T04:19:19.518Z,100872.14
2023-01-29T04:21:50.231Z,100871.95
2023-01-29T04:24:16.683Z,100870.55
2023-01-29T04:27:24.582Z,100871.59
2023-01-29T04:30:24.083Z,100870.67
2023-01-29T04:33:26.096Z,100869.46
2023-01-29T04:36:29.300Z,100866.60
2023-01-29T04:39:15.195Z,100864.64
2023-01-29T04:41:51.131Z,100863.04
2023-01-29T04:44:32.069Z,100866.91
2023-01-29T04:47:24.169Z,100866.56
2023-01-29T04:50:08.833Z,100870.68
2023-01-29T04:53:11.419Z,100869.73
2023-01-29T04:55:44.508Z,100874.73
2023-01-29T04:58:32.114Z,100878.77
2023-01-29T05:01:00.381Z,100879.58
2023-01-29T05:03:29.233Z,100876.14
2023-01-29T05:05:57.401Z,100873.05
2023-01-29T05:08:25.591Z,100873.77
2023-01-29T05:10:54.766Z,100878.14
2023-01-29T05:13:22.715Z,100876.45
2023-01-29T05:15:54.526Z,100874.75
2023-01-29T05:18:20.894Z,100873.10
2023-01-29T05:20:47.885Z,100878.52
2023-01-29T05:23:18.232Z,100881.30
2023-01-29T05:25:45.696Z,100882.52
2023-01-29T05:28:17.794Z,100881.77
2023-01-29T05:30:46.738Z,100886.73
2023-01-29T05:33:21.875Z,100884.29
2023-01-29T05:35:49.090Z,100886.61
2023-01-29T05:38:16.100Z,100883.10
2023-01-29T05:40:42.553Z,100885.77
2023-01-29T05:43:16.966Z,100886.98
2023-01-29T05:45:50.839Z,100891.05
2023-01-29T05:48:16.757Z,100886.27
2023-01-29T05:50:42.704Z,100888.22
2023-01-29T05:53:08.753Z,100892.42
2023-01-29T05:55:34.762Z,100892.75
2023-01-29T05:58:00.746Z,100893.73
2023-01-29T06:00:26.644Z,100897.92
2023-01-29T06:02:52.861Z,100897.38
2023-01-29T06:05:19.083Z,100897.34
2023-01-29T06:07:45.635Z,100897.80
2023-01-29T06:10:14.496Z,100897.09
2023-01-29T06:12:41.800Z,100899.02
2023-01-29T06:15:08.252Z,100902.14
2023-01-29T06:17:34.249Z,100904.02
2023-01-29T06:20:00.185Z,100905.42
2023-01-29T06:22:26.203Z,100905.05
2023-01-29T06:24:52.114Z,100910.34
2023-01-29T06:27:18.264Z,100913.51
2023-01-29T06:29:44.225Z,100911.00
2023-01-29T06:32:10.295Z,100916.99
2023-01-29T06:34:39.129Z,100919.98
2023-01-29T06:37:05.351Z,100921.93
2023-01-29T06:39:31.231Z,100924.77
2023-01-29T06:41:57.208Z,100930.24
2023-01-29T06:44:23.136Z,100928.84
2023-01-29T06:46:49.013Z,100933.23
2023-01-29T06:49:15.040Z,100937.98
2023-01-29T06:51:40.958Z,100940.64
2023-01-29T06:54:08.484Z,100946.99
2023-01-29T06:56:34.553Z,100946.83
2023-01-29T06:59:00.516Z,100945.44
2023-01-29T07:01:35.783Z,100945.77
2023-01-29T07:04:03.148Z,100952.47
2023-01-29T07:06:29.941Z,100956.50
2023-01-29T07:08:56.176Z,100956.33
2023-01-29T07:11:22.065Z,100954.89
2023-01-29T07:13:47.949Z,100961.93
2023-01-29T07:16:13.990Z,100962.77
2023-01-29T07:18:39.898Z,100965.37
2023-01-29T07:21:06.720Z,100970.10
2023-01-29T07:23:34.833Z,100979.58
2023-01-29T07:26:02.874Z,100981.13
2023-01-29T07:28:29.195Z,100990.45
2023-01-29T07:30:59.072Z,100995.52
2023-01-29T07:33:25.779Z,100996.14
2023-01-29T07:35:52.455Z,100997.48
2023-01-29T07:38:18.823Z,100997.95
2023-01-29T07:40:45.072Z,101002.29
2023-01-29T07:43:11.147Z,101006.63
2023-01-29T07:45:39.061Z,101012.05
2023-01-29T07:48:07.245Z,101016.25
2023-01-29T07:50:34.536Z,101014.98
2023-01-29T07:53:00.849Z,101014.75
2023-01-29T07:55:27.243Z,101021.39
2023-01-29T07:57:57.693Z,101023.42
2023-01-29T08:00:24.135Z,101026.87
2023-01-29T08:02:50.193Z,101028.36
2023-01-29T08:05:16.377Z,101033.49
2023-01-29T08:07:42.267Z,101027.86
2023-01-29T08:10:08.917Z,101026.78
2023-01-29T08:12:34.865Z,101031.82
2023-01-29T08:15:00.876Z,101031.20
2023-01-29T08:17:26.765Z,101039.92
2023-01-29T08:19:52.812Z,101039.45
2023-01-29T08:22:18.747Z,101040.81
2023-01-29T08:24:53.871Z,101045.52
2023-01-29T08:27:26.057Z,101045.72
2023-01-29T08:29:52.180Z,101044.73
2023-01-29T08:32:18.112Z,101048.56
2023-01-29T08:34:44.122Z,101049.23
2023-01-29T08:37:10.183Z,101049.20
2023-01-29T08:39:36.149Z,101042.24
2023-01-29T08:42:02.110Z,101043.31
2023-01-29T08:44:28.817Z,101046.63
2023-01-29T08:46:54.800Z,101046.75
2023-01-29T08:49:20.722Z,101039.45
2023-01-29T08:51:46.837Z,101040.05
2023-01-29T08:54:12.766Z,101044.83
2023-01-29T08:56:38.653Z,101044.73
2023-01-29T08:59:04.610Z,101042.59
2023-01-29T09:01:30.563Z,101044.31
2023-01-29T09:03:56.554Z,101047.11
2023-01-29T09:06:22.541Z,101046.92
2023-01-29T09:08:49.133Z,101051.63
2023-01-29T09:11:15.076Z,101055.48
2023-01-29T09:13:41.046Z,101064.37
2023-01-29T09:16:07.359Z,101065.70
2023-01-29T09:18:33.290Z,101072.05
2023-01-29T09:20:59.328Z,101072.83
2023-01-29T09:23:25.330Z,101074.44
2023-01-29T09:25:51.251Z,101077.33
2023-01-29T09:28:17.263Z,101075.88
2023-01-29T09:30:44.292Z,101073.89
2023-01-29T09:33:10.310Z,101074.44
2023-01-29T09:35:36.770Z,101075.37
2023-01-29T09:38:02.684Z,101079.48
2023-01-29T09:40:51.132Z,101076.88
2023-01-29T09:43:32.207Z,101077.04
2023-01-29T09:46:03.893Z,101073.32
2023-01-29T09:48:33.553Z,101073.95
2023-01-29T09:51:05.822Z,101076.30
2023-01-29T09:53:45.679Z,101072.46
2023-01-29T09:56:17.233Z,101077.03
2023-01-29T09:58:43.809Z,101076.15
2023-01-29T10:01:23.586Z,101069.27
2023-01-29T10:04:31.700Z,101066.89
2023-01-29T10:07:22.152Z,101066.65
2023-01-29T10:09:56.879Z,101063.43
2023-01-29T10:12:45.035Z,101061.25
2023-01-29T10:15:35.899Z,101057.47
2023-01-29T10:18:04.848Z,101055.48
2023-01-29T10:21:04.149Z,101047.71
2023-01-29T10:23:34.741Z,101047.80
2023-01-29T10:26:01.063Z,101047.06
2023-01-29T10:28:33.384Z,101046.41
2023-01-29T10:31:05.376Z,101046.52
2023-01-29T10:34:02.385Z,101043.80
2023-01-29T10:36:45.135Z,101037.00
2023-01-29T10:39:25.709Z,101035.36
2023-01-29T10:42:19.369Z,101030.79
2023-01-29T10:45:18.332Z,101025.92
2023-01-29T10:48:04.117Z,101021.83
2023-01-29T10:50:57.035Z,101016.27
2023-01-29T10:53:50.569Z,101016.19
2023-01-29T10:56:41.667Z,101019.21
2023-01-29T10:59:27.008Z,101009.98
2023-01-29T11:01:58.543Z,101007.06
2023-01-29T11:04:27.520Z,101000.17
2023-01-29T11:06:53.797Z,100995.05
2023-01-29T11:09:34.638Z,100988.20
2023-01-29T11:12:02.905Z,100983.90
2023-01-29T11:14:45.943Z,100979.55
2023-01-29T11:17:17.142Z,100970.20
2023-01-29T11:19:46.040Z,100964.84
2023-01-29T11:22:52.428Z,100957.66
2023-01-29T11:25:19.738Z,100951.47
2023-01-29T11:27:49.749Z,100949.63
2023-01-29T11:30:22.766Z,100943.23
2023-01-29T11:33:09.164Z,100936.73
2023-01-29T11:35:36.001Z,100927.78
2023-01-29T11:38:24.537Z,100922.73
2023-01-29T11:40:51.782Z,100920.42
2023-01-29T11:43:20.741Z,100916.36
2023-01-29T11:45:50.300Z,100911.55
2023-01-29T11:48:19.855Z,100905.09
2023-01-29T11:51:20.962Z,100902.61
2023-01-29T11:53:53.198Z,100900.49
2023-01-29T11:56:26.552Z,100891.25
2023-01-29T11:58:55.144Z,100887.48
2023-01-29T12:01:37.769Z,100883.74
2023-01-29T12:04:18.411Z,100877.86
2023-01-29T12:06:48.547Z,100874.20
2023-01-29T12:09:19.018Z,100870.80
2023-01-29T12:11:45.072Z,100869.98
2023-01-29T12:14:40.320Z,100871.08
2023-01-29T12:17:23.414Z,100866.20
2023-01-29T12:19:55.942Z,100868.36
2023-01-29T12:22:37.812Z,100869.91
2023-01-29T12:25:45.755Z,100869.75
2023-01-29T12:28:37.091Z,100866.58
2023-01-29T12:31:12.494Z,100857.30
2023-01-29T12:34:02.669Z,100855.33
2023-01-29T12:36:37.858Z,100842.59
2023-01-29T12:39:04.440Z,100842.52
2023-01-29T12:41:38.513Z,100844.23
2023-01-29T12:44:17.243Z,100845.02
2023-01-29T12:46:49.934Z,100846.14
2023-01-29T12:49:21.606Z,100846.27
2023-01-29T12:52:18.311Z,100839.63
2023-01-29T12:54:53.471Z,100839.30
2023-01-29T12:57:37.677Z,100840.11
2023-01-29T13:00:13.725Z,100835.70
2023-01-29T13:03:06.093Z,100835.33
2023-01-29T13:05:45.687Z,100826.02
2023-01-29T13:08:18.405Z,100821.19
2023-01-29T13:10:49.977Z,100817.29
2023-01-29T13:13:32.282Z,100816.83
2023-01-29T13:16:00.527Z,100814.10
2023-01-29T13:18:43.541Z,100809.27
2023-01-29T13:21:18.654Z,100803.14
2023-01-29T13:23:49.155Z,100795.45
2023-01-29T13:26:20.719Z,100789.39
2023-01-29T13:28:48.721Z,100787.35
2023-01-29T13:31:26.843Z,100785.79
2023-01-29T13:34:01.909Z,100790.20
2023-01-29T13:36:30.403Z,100792.22
2023-01-29T13:39:08.244Z,100791.59
2023-01-29T13:41:39.272Z,100788.98
2023-01-29T13:44:17.312Z,100788.80
2023-01-29T13:47:08.003Z,100784.90
2023-01-29T13:49:51.971Z,100789.55
2023-01-29T13:52:42.348Z,100780.57
2023-01-29T13:55:14.446Z,100780.88
2023-01-29T13:57:43.405Z,100783.23
2023-01-29T14:00:21.724Z,100785.08
2023-01-29T14:03:11.072Z,100783.85
2023-01-29T14:05:38.373Z,100780.77
2023-01-29T14:08:13.555Z,100778.11
2023-01-29T14:10:41.182Z,100780.34
2023-01-29T14:13:17.487Z,100778.21
2023-01-29T14:16:03.412Z,100772.73
2023-01-29T14:18:32.692Z,100774.52
2023-01-29T14:21:03.026Z,100771.00
2023-01-29T14:23:45.436Z,100765.23
2023-01-29T14:26:37.772Z,100760.89
2023-01-29T14:29:25.647Z,100757.28
2023-01-29T14:32:06.045Z,100763.18
2023-01-29T14:34:48.092Z,100760.27
2023-01-29T14:37:14.157Z,100763.11
2023-01-29T14:39:45.249Z,100763.77
2023-01-29T14:42:29.205Z,100763.92
2023-01-29T14:44:57.847Z,100768.11
2023-01-29T14:47:26.784Z,100768.44
2023-01-29T14:49:58.523Z,100767.58
2023-01-29T14:52:46.532Z,100763.53
2023-01-29T14:55:29.363Z,100766.54
2023-01-29T14:57:57.555Z,100767.89
2023-01-29T15:00:30.757Z,100768.98
2023-01-29T15:03:01.885Z,100769.57
2023-01-29T15:05:32.180Z,100766.08
2023-01-29T15:08:05.721Z,100766.80
2023-01-29T15:10:43.474Z,100764.68
2023-01-29T15:13:32.142Z,100765.06
2023-01-29T15:16:12.247Z,100762.14
2023-01-29T15:18:42.907Z,100761.13
2023-01-29T15:21:14.201Z,100761.73
2023-01-29T15:23:40.529Z,100755.69
2023-01-29T15:26:10.971Z,100751.86
2023-01-29T15:28:38.717Z,100751.08
2023-01-29T15:31:11.281Z,100754.15
2023-01-29T15:33:40.548Z,100755.55
2023-01-29T15:36:08.400Z,100758.48
2023-01-29T15:38:35.320Z,100758.16
2023-01-29T15:41:03.786Z,100761.23
2023-01-29T15:43:34.671Z,100766.13
2023-01-29T15:46:06.905Z,100767.11
2023-01-29T15:48:39.992Z,100769.42
2023-01-29T15:51:07.871Z,100773.27
2023-01-29T15:54:01.653Z,100773.75
2023-01-29T15:56:28.933Z,100776.60
2023-01-29T15:58:57.432Z,100774.33
2023-01-29T16:01:26.358Z,100775.87
2023-01-29T16:03:53.406Z,100775.95
2023-01-29T16:06:20.779Z,100773.30
2023-01-29T16:08:50.741Z,100783.07
2023-01-29T16:11:18.928Z,100783.35
2023-01-29T16:13:48.412Z,100785.21
2023-01-29T16:16:14.349Z,100779.91
2023-01-29T16:18:57.960Z,100780.27
2023-01-29T16:21:39.222Z,100779.50
2023-01-29T16:24:12.768Z,100776.69
2023-01-29T16:26:44.097Z,100779.86
2023-01-29T16:29:13.302Z,100773.64
2023-01-29T16:31:41.187Z,100768.76
2023-01-29T16:34:34.748Z,100761.02
2023-01-29T16:37:04.847Z,100765.29
2023-01-29T16:39:35.366Z,100770.42
2023-01-29T16:42:11.638Z,100772.55
2023-01-29T16:44:39.830Z,100778.98
2023-01-29T16:47:29.044Z,100783.78
2023-01-29T16:49:57.885Z,100780.04
2023-01-29T16:52:27.567Z,100785.38
2023-01-29T16:55:00.409Z,100790.95
2023-01-29T16:57:31.925Z,100792.00
2023-01-29T17:00:01.348Z,100790.73
2023-01-29T17:02:37.887Z,100795.52
2023-01-29T17:05:10.263Z,100797.83
2023-01-29T17:07:37.310Z,100797.16
2023-01-29T17:10:05.958Z,100800.40
2023-01-29T17:12:33.370Z,100799.52
2023-01-29T17:15:24.980Z,100799.41
2023-01-29T17:17:51.145Z,100799.46
2023-01-29T17:20:17.398Z,100794.58
2023-01-29T17:22:44.529Z,100795.49
2023-01-29T17:25:14.894Z,100798.64
2023-01-29T17:27:43.696Z,100797.19
2023-01-29T17:30:14.928Z,100799.07
2023-01-29T17:32:44.552Z,100803.63
2023-01-29T17:35:14.508Z,100804.46
2023-01-29T17:37:40.980Z,100807.74
2023-01-29T17:40:34.437Z,100812.11
2023-01-29T17:43:00.414Z,100813.03
2023-01-29T17:45:26.519Z,100816.04
2023-01-29T17:47:52.448Z,100817.38
2023-01-29T17:50:23.249Z,100819.92
2023-01-29T17:52:49.688Z,100818.78
2023-01-29T17:55:16.857Z,100819.06
2023-01-29T17:57:42.986Z,100817.56
2023-01-29T18:00:16.663Z,100816.23
2023-01-29T18:02:42.900Z,100815.45
2023-01-29T18:05:10.303Z,100812.88
2023-01-29T18:07:37.947Z,100812.94
2023-01-29T18:10:04.653Z,100810.73
2023-01-29T18:12:30.543Z,100810.47
2023-01-29T18:14:56.509Z,100806.52
2023-01-29T18:17:22.935Z,100804.48
2023-01-29T18:19:48.864Z,100805.48
2023-01-29T18:22:15.390Z,100805.44
2023-01-29T18:24:41.318Z,100801.14
2023-01-29T18:27:08.180Z,100801.63
2023-01-29T18:29:34.247Z,100799.41
2023-01-29T18:32:00.235Z,100799.79
2023-01-29T18:34:26.213Z,100794.16
2023-01-29T18:36:52.158Z,100793.32
2023-01-29T18:39:18.027Z,100792.67
2023-01-29T18:41:44.046Z,100791.86
2023-01-29T18:44:10.531Z,100795.79
2023-01-29T18:46:36.490Z,100797.61
2023-01-29T18:49:02.450Z,100797.11
2023-01-29T18:51:28.493Z,100792.71
2023-01-29T18:53:54.392Z,100796.13
2023-01-29T18:56:20.338Z,100795.49
2023-01-29T18:58:52.260Z,100797.60
2023-01-29T19:01:22.209Z,100796.59
2023-01-29T19:03:48.135Z,100791.59
2023-01-29T19:06:14.094Z,100791.52
2023-01-29T19:08:40.428Z,100788.27
2023-01-29T19:11:08.328Z,100787.27
2023-01-29T19:13:36.318Z,100788.78
2023-01-29T19:16:06.381Z,100789.55
2023-01-29T19:18:33.012Z,100791.02
2023-01-29T19:20:58.927Z,100789.80
2023-01-29T19:23:24.822Z,100789.10
2023-01-29T19:25:50.832Z,100788.27
2023-01-29T19:28:16.754Z,100792.59
2023-01-29T19:30:42.819Z,100790.75
2023-01-29T19:33:10.019Z,100789.37
2023-01-29T19:35:36.007Z,100794.38
2023-01-29T19:38:01.974Z,100790.77
2023-01-29T19:40:27.987Z,100784.59
2023-01-29T19:42:55.287Z,100787.06
2023-01-29T19:45:38.583Z,100786.52
2023-01-29T19:48:11.229Z,100786.48
2023-01-29T19:50:37.470Z,100786.54
2023-01-29T19:53:03.526Z,100789.62
2023-01-29T19:55:29.565Z,100782.52
2023-01-29T19:57:57.450Z,100788.10
2023-01-29T20:00:23.814Z,100783.11
2023-01-29T20:02:49.858Z,100782.69
2023-01-29T20:05:17.782Z,100783.69
2023-01-29T20:07:44.345Z,100782.20
2023-01-29T20:10:16.435Z,100780.17
2023-01-29T20:12:45.817Z,100782.25
2023-01-29T20:15:13.395Z,100780.48
2023-01-29T20:17:39.364Z,100784.05
2023-01-29T20:20:06.150Z,100779.70
2023-01-29T20:22:32.093Z,100779.12
2023-01-29T20:24:58.093Z,100777.30
2023-01-29T20:27:24.184Z,100780.48
2023-01-29T20:29:51.813Z,100779.63
2023-01-29T20:32:18.007Z,100783.41
2023-01-29T20:34:44.831Z,100786.02
2023-01-29T20:37:10.772Z,100784.02
2023-01-29T20:39:36.797Z,100783.89
2023-01-29T20:42:02.988Z,100786.83
2023-01-29T20:44:28.921Z,100782.86
2023-01-29T20:46:55.598Z,100788.93
2023-01-29T20:49:21.541Z,100789.64
2023-01-29T20:51:47.473Z,100786.83
2023-01-29T20:54:13.482Z,100785.40
2023-01-29T20:56:44.258Z,100783.80
2023-01-29T20:59:11.502Z,100785.78
2023-01-29T21:01:37.761Z,100785.63
2023-01-29T21:04:03.814Z,100779.28
2023-01-29T21:06:30.443Z,100784.23
2023-01-29T21:08:56.414Z,100786.19
2023-01-29T21:11:22.518Z,100784.27
2023-01-29T21:13:50.233Z,100784.81
2023-01-29T21:16:16.308Z,100783.91
2023-01-29T21:18:42.307Z,100782.98
2023-01-29T21:21:08.351Z,100778.73
2023-01-29T21:23:34.305Z,100775.61
2023-01-29T21:26:05.084Z,100776.17
2023-01-29T21:28:32.652Z,100772.67
2023-01-29T21:31:17.006Z,100771.13
2023-01-29T21:33:43.354Z,100773.84
2023-01-29T21:36:10.057Z,100768.58
2023-01-29T21:38:36.233Z,100767.94
2023-01-29T21:41:05.218Z,100768.50
2023-01-29T21:43:31.120Z,100768.77
2023-01-29T21:45:59.803Z,100773.92
2023-01-29T21:48:26.107Z,100768.75
2023-01-29T21:50:52.078Z,100766.86
2023-01-29T21:53:18.684Z,100766.45
2023-01-29T21:55:45.568Z,100765.35
2023-01-29T21:58:13.476Z,100767.20
2023-01-29T22:00:40.402Z,100766.66
2023-01-29T22:03:06.412Z,100762.42
2023-01-29T22:05:33.079Z,100765.55
2023-01-29T22:07:59.043Z,100767.80
2023-01-29T22:10:25.252Z,100768.88
2023-01-29T22:12:51.500Z,100767.69
2023-01-29T22:15:17.500Z,100766.31
2023-01-29T22:17:43.481Z,100764.09
2023-01-29T22:20:11.630Z,100762.94
2023-01-29T22:22:37.632Z,100766.77
2023-01-29T22:25:04.668Z,100763.85
2023-01-29T22:27:32.651Z,100765.70
2023-01-29T22:29:59.209Z,100763.14
2023-01-29T22:32:25.212Z,100760.03
2023-01-29T22:34:51.254Z,100756.24
2023-01-29T22:37:17.454Z,100754.55
2023-01-29T22:39:43.385Z,100748.99
2023-01-29T22:42:09.444Z,100750.80
2023-01-29T22:44:35.475Z,100747.64
2023-01-29T22:47:01.548Z,100747.49
2023-01-29T22:49:29.519Z,100746.37
2023-01-29T22:52:10.777Z,100745.06
2023-01-29T22:54:41.194Z,100743.44
2023-01-29T22:57:10.297Z,100738.27
2023-01-29T22:59:36.761Z,100734.17
2023-01-29T23:02:03.632Z,100737.48
2023-01-29T23:04:29.625Z,100739.17
2023-01-29T23:06:55.672Z,100740.27
2023-01-29T23:09:21.707Z,100740.81
2023-01-29T23:11:47.610Z,100740.98
2023-01-29T23:14:13.554Z,100739.36
2023-01-29T23:16:39.416Z,100733.70
2023-01-29T23:19:05.342Z,100731.07
2023-01-29T23:21:31.379Z,100732.70
2023-01-29T23:24:00.628Z,100735.39
2023-01-29T23:26:46.901Z,100727.67
2023-01-29T23:29:13.628Z,100728.55
2023-01-29T23:31:39.534Z,100729.65
2023-01-29T23:34:05.534Z,100721.92
2023-01-29T23:36:31.639Z,100726.70
2023-01-29T23:38:57.550Z,100724.49
2023-01-29T23:41:23.713Z,100724.39
2023-01-29T23:43:49.662Z,100727.98
2023-01-29T23:46:15.689Z,100727.55
2023-01-29T23:48:41.621Z,100725.52
2023-01-29T23:51:07.578Z,100725.73
2023-01-29T23:53:33.597Z,100724.53
2023-01-29T23:56:02.835Z,100724.55
2023-01-29T23:58:30.530Z,100722.46
